Time;durP1;ratioP1;P1;durP2;ratioP2;P2;SDS_P1;SDS_P2;PMS_P1;PMS_P2;Temp;Humidity;BMP_temperature;BMP_pressure;BME280_temperature;BME280_humidity;BME280_pressure;Samples;Min_cycle;Max_cycle;Signal;HPM_P1;HPM_P2
2022/08/24 00:00:31;;;;;;;2.58;1.45;;;;;;;16.46;100.00;98657.72;15297444;19;20034;-81
2022/08/24 00:05:38;;;;;;;3.50;1.65;;;;;;;16.46;100.00;98652.28;15296852;19;20711;-81
2022/08/24 00:10:43;;;;;;;2.78;1.50;;;;;;;16.41;100.00;98652.00;15292615;19;20475;-80
2022/08/24 00:15:48;;;;;;;3.35;1.60;;;;;;;16.39;100.00;98654.09;15289610;19;20003;-80
2022/08/24 00:20:56;;;;;;;3.28;1.50;;;;;;;16.36;100.00;98658.03;15290847;19;20018;-81
2022/08/24 00:26:01;;;;;;;4.60;1.65;;;;;;;16.31;100.00;98663.22;15299532;19;20096;-79
2022/08/24 00:31:06;;;;;;;3.67;1.70;;;;;;;16.25;100.00;98662.09;15297669;19;20364;-80
2022/08/24 00:36:14;;;;;;;6.63;1.70;;;;;;;16.16;100.00;98668.69;15293648;19;20075;-77
2022/08/24 00:41:20;;;;;;;4.18;1.60;;;;;;;16.11;100.00;98671.13;15298122;19;20011;-79
2022/08/24 00:46:28;;;;;;;2.83;1.60;;;;;;;16.06;100.00;98676.28;15297093;19;20010;-80
2022/08/24 00:51:40;;;;;;;4.03;1.88;;;;;;;15.96;100.00;98679.31;15298968;19;20011;-79
2022/08/24 00:56:50;;;;;;;3.00;1.60;;;;;;;15.91;100.00;98684.47;15298183;19;20010;-80
2022/08/24 01:01:57;;;;;;;2.72;1.50;;;;;;;15.81;100.00;98682.88;15293383;19;20046;-79
2022/08/24 01:07:12;;;;;;;1.90;1.35;;;;;;;15.77;100.00;98680.72;15293763;19;20025;-79
2022/08/24 01:12:17;;;;;;;2.30;1.60;;;;;;;15.68;100.00;98682.69;15292104;19;20021;-79
2022/08/24 01:23:06;;;;;;;2.20;1.40;;;;;;;15.60;100.00;98690.94;15269592;19;20017;-74
2022/08/24 01:28:19;;;;;;;3.03;1.70;;;;;;;15.53;100.00;98701.69;15271360;19;20022;-74
2022/08/24 01:33:33;;;;;;;3.42;1.63;;;;;;;15.49;100.00;98697.66;15277082;19;20540;-76
2022/08/24 01:38:37;;;;;;;4.60;1.90;;;;;;;15.43;100.00;98691.09;15284745;19;20014;-78
2022/08/24 01:43:45;;;;;;;3.63;1.80;;;;;;;15.40;100.00;98686.91;15283598;19;20021;-78
2022/08/24 01:48:49;;;;;;;3.13;1.73;;;;;;;15.34;100.00;98693.09;15288769;19;20010;-77
2022/08/24 01:53:54;;;;;;;3.60;1.60;;;;;;;15.28;100.00;98693.81;15278958;19;20038;-74
2022/08/24 01:59:02;;;;;;;2.95;1.75;;;;;;;15.23;100.00;98690.78;15281436;19;20549;-80
2022/08/24 02:04:08;;;;;;;3.47;1.80;;;;;;;15.19;100.00;98690.31;15298674;19;20018;-79
2022/08/24 02:09:14;;;;;;;2.70;2.00;;;;;;;15.14;100.00;98692.75;15285260;19;20014;-77
2022/08/24 02:14:22;;;;;;;4.55;1.95;;;;;;;15.09;100.00;98693.31;15279818;19;20498;-79
2022/08/24 02:19:30;;;;;;;4.50;1.73;;;;;;;15.06;100.00;98692.81;15275884;19;20034;-77
2022/08/24 02:24:35;;;;;;;2.65;1.65;;;;;;;15.01;100.00;98687.94;15271735;19;20018;-77
2022/08/24 02:29:42;;;;;;;3.08;1.77;;;;;;;14.99;100.00;98687.31;15273421;19;20317;-80
2022/08/24 02:34:47;;;;;;;3.15;1.70;;;;;;;14.94;100.00;98682.41;15279396;19;20014;-78
2022/08/24 02:39:52;;;;;;;2.72;1.70;;;;;;;14.91;100.00;98682.78;15281567;19;20520;-79
2022/08/24 02:45:02;;;;;;;5.35;1.80;;;;;;;14.89;100.00;98689.41;15278771;19;20469;-78
2022/08/24 02:50:09;;;;;;;2.42;1.80;;;;;;;14.84;100.00;98689.13;15280144;19;20097;-77
2022/08/24 02:55:16;;;;;;;3.40;2.20;;;;;;;14.83;100.00;98687.44;15279570;19;20381;-78
2022/08/24 03:00:27;;;;;;;2.85;1.90;;;;;;;14.76;100.00;98700.88;15277270;19;20069;-79
2022/08/24 03:05:33;;;;;;;7.47;2.58;;;;;;;14.70;100.00;98704.34;15269780;19;20038;-77
2022/08/24 03:10:38;;;;;;;5.50;2.10;;;;;;;14.66;100.00;98720.06;15278924;19;20014;-76
2022/08/24 03:15:46;;;;;;;3.60;2.28;;;;;;;14.62;100.00;98716.03;15275153;19;20073;-76
2022/08/24 03:20:51;;;;;;;6.22;2.38;;;;;;;14.59;100.00;98716.41;15280515;19;20110;-78
2022/08/24 03:25:57;;;;;;;4.32;2.45;;;;;;;14.58;100.00;98714.72;15275867;19;20047;-77
2022/08/24 03:31:04;;;;;;;6.82;2.40;;;;;;;14.53;100.00;98711.69;15265150;19;20975;-78
2022/08/24 03:36:10;;;;;;;2.63;2.13;;;;;;;14.49;100.00;98717.47;15265263;19;20010;-78
2022/08/24 03:41:18;;;;;;;3.88;2.20;;;;;;;14.43;100.00;98722.78;15269337;19;20435;-77
2022/08/24 03:46:29;;;;;;;3.83;2.30;;;;;;;14.40;100.00;98721.28;15264343;19;20095;-78
2022/08/24 03:51:34;;;;;;;4.78;2.55;;;;;;;14.33;100.00;98718.44;15272819;19;20076;-77
2022/08/24 03:56:39;;;;;;;4.88;2.25;;;;;;;14.29;100.00;98722.50;15269290;19;20018;-78
2022/08/24 04:01:46;;;;;;;4.85;2.17;;;;;;;14.25;100.00;98717.63;15269501;19;20015;-81
2022/08/24 04:06:51;;;;;;;3.08;2.22;;;;;;;14.18;100.00;98717.50;15257311;19;20011;-78
2022/08/24 04:11:56;;;;;;;5.25;2.58;;;;;;;14.13;100.00;98737.00;15273008;19;20598;-77
2022/08/24 04:17:06;;;;;;;3.80;2.17;;;;;;;14.11;100.00;98732.78;15267832;19;20023;-78
2022/08/24 04:22:16;;;;;;;2.45;2.05;;;;;;;14.06;100.00;98733.28;15271192;19;20017;-78
2022/08/24 04:27:20;;;;;;;4.93;2.70;;;;;;;13.96;100.00;98747.06;15269424;19;20763;-78
2022/08/24 04:32:28;;;;;;;4.13;2.80;;;;;;;13.95;100.00;98752.63;15281163;19;20066;-78
2022/08/24 04:37:32;;;;;;;4.15;2.92;;;;;;;13.94;100.00;98762.63;15274312;19;20002;-77
2022/08/24 04:42:37;;;;;;;3.60;2.67;;;;;;;13.95;100.00;98763.47;15291551;19;20367;-77
2022/08/24 04:47:45;;;;;;;3.85;2.70;;;;;;;13.98;100.00;98768.53;15288654;19;20015;-78
2022/08/24 04:52:50;;;;;;;4.60;2.65;;;;;;;14.00;100.00;98771.91;15282109;19;20058;-77
2022/08/24 04:57:55;;;;;;;5.15;2.80;;;;;;;14.04;100.00;98778.69;15279715;19;20028;-78
2022/08/24 05:03:02;;;;;;;2.90;2.20;;;;;;;14.07;100.00;98782.91;15279622;19;20678;-77
2022/08/24 05:08:07;;;;;;;3.85;2.60;;;;;;;14.10;100.00;98785.28;15276840;19;20035;-78
2022/08/24 05:13:13;;;;;;;4.57;2.53;;;;;;;14.16;100.00;98792.69;15273333;19;20455;-78
2022/08/24 05:18:21;;;;;;;3.55;2.30;;;;;;;14.20;100.00;98794.03;15275419;19;20806;-78
2022/08/24 05:23:28;;;;;;;3.17;2.40;;;;;;;14.26;100.00;98804.16;15270624;19;20618;-78
2022/08/24 05:28:34;;;;;;;5.47;2.65;;;;;;;14.33;100.00;98807.00;15270000;19;20045;-78
2022/08/24 05:33:42;;;;;;;5.35;2.35;;;;;;;14.39;100.00;98803.59;15270687;19;20010;-80
2022/08/24 05:38:49;;;;;;;3.38;2.45;;;;;;;14.47;100.00;98805.41;15272520;19;20106;-78
2022/08/24 05:43:55;;;;;;;4.43;2.47;;;;;;;14.56;100.00;98807.09;15271729;19;20023;-78
2022/08/24 05:49:03;;;;;;;3.85;2.40;;;;;;;14.66;100.00;98804.13;15278678;19;20011;-78
2022/08/24 05:54:10;;;;;;;3.67;2.50;;;;;;;14.74;100.00;98812.28;15274555;19;20018;-77
2022/08/24 05:59:27;;;;;;;4.63;2.20;;;;;;;14.85;100.00;98819.13;15274270;19;20022;-78
2022/08/24 06:04:37;;;;;;;4.63;2.40;;;;;;;14.96;100.00;98817.91;15275812;19;20017;-79
2022/08/24 06:09:44;;;;;;;3.90;2.38;;;;;;;15.06;100.00;98815.78;15272801;19;20716;-78
2022/08/24 06:14:49;;;;;;;4.80;2.40;;;;;;;15.19;100.00;98819.75;15267976;19;21234;-78
2022/08/24 06:20:01;;;;;;;4.32;2.15;;;;;;;15.32;100.00;98821.84;15273774;19;20098;-78
2022/08/24 06:30:25;;;;;;;3.58;2.17;;;;;;;15.59;100.00;98817.72;15278345;19;20411;-78
2022/08/24 06:35:37;;;;;;;3.92;2.35;;;;;;;15.72;100.00;98808.94;15276406;19;20393;-78
2022/08/24 06:40:42;;;;;;;3.97;2.00;;;;;;;15.86;100.00;98818.16;15270586;19;20014;-77
2022/08/24 06:45:48;;;;;;;5.32;2.30;;;;;;;16.00;100.00;98822.78;15268383;19;20077;-77
2022/08/24 06:50:58;;;;;;;5.85;2.50;;;;;;;16.18;100.00;98818.81;15270973;19;20102;-78
2022/08/24 06:56:04;;;;;;;3.80;2.17;;;;;;;16.37;100.00;98817.41;15273760;19;20015;-78
2022/08/24 07:01:11;;;;;;;3.17;2.10;;;;;;;16.57;100.00;98822.28;15276416;19;20473;-78
2022/08/24 07:06:19;;;;;;;6.47;2.22;;;;;;;16.77;100.00;98815.19;15272086;19;20034;-78
2022/08/24 07:11:24;;;;;;;4.70;2.03;;;;;;;16.99;100.00;98811.69;15274138;19;20098;-78
2022/08/24 07:16:30;;;;;;;4.30;2.13;;;;;;;17.18;100.00;98802.00;15266647;19;20395;-78
2022/08/24 07:21:41;;;;;;;4.05;2.20;;;;;;;17.43;100.00;98801.63;15267733;19;20042;-77
2022/08/24 07:26:46;;;;;;;3.92;2.03;;;;;;;17.67;100.00;98800.34;15280229;19;20010;-76
2022/08/24 07:31:52;;;;;;;2.38;1.80;;;;;;;17.94;100.00;98803.25;15283730;19;20020;-77
2022/08/24 07:37:07;;;;;;;5.15;1.80;;;;;;;18.21;100.00;98806.16;15321331;19;20034;-77
2022/08/24 07:42:16;;;;;;;2.80;1.90;;;;;;;18.43;100.00;98802.28;15312921;19;20007;-77
2022/08/24 07:47:31;;;;;;;5.00;1.90;;;;;;;18.75;100.00;98807.25;15298658;19;20017;-78
2022/08/24 07:52:55;;;;;;;2.85;1.63;;;;;;;19.04;100.00;98800.63;15287694;19;20038;-77
2022/08/24 07:58:01;;;;;;;4.10;1.70;;;;;;;19.30;100.00;98812.66;15285081;19;20021;-78
2022/08/24 08:03:06;;;;;;;2.13;1.35;;;;;;;19.58;100.00;98817.06;15278235;19;20034;-78
2022/08/24 08:08:15;;;;;;;6.30;1.83;;;;;;;19.93;100.00;98818.78;15280494;19;20030;-78
2022/08/24 08:13:21;;;;;;;2.92;1.30;;;;;;;20.21;100.00;98814.94;15275424;19;20018;-78
2022/08/24 08:18:32;;;;;;;2.65;1.15;;;;;;;20.53;100.00;98806.81;15284431;19;20495;-78
2022/08/24 08:29:09;;;;;;;3.55;1.20;;;;;;;21.22;100.00;98799.75;15299928;19;20011;-79
2022/08/24 08:34:15;;;;;;;3.55;1.50;;;;;;;21.51;100.00;98793.84;15290524;19;20026;-77
2022/08/24 08:39:24;;;;;;;2.75;1.33;;;;;;;21.85;100.00;98795.22;15288426;19;20490;-77
2022/08/24 08:44:52;;;;;;;3.30;1.30;;;;;;;22.25;100.00;98793.16;15290150;19;20018;-78
2022/08/24 08:50:15;;;;;;;2.83;1.20;;;;;;;22.57;100.00;98798.50;15294091;19;20006;-78
2022/08/24 08:55:34;;;;;;;5.32;1.30;;;;;;;22.76;100.00;98780.06;15284564;19;20499;-77
2022/08/24 09:00:54;;;;;;;3.22;1.30;;;;;;;22.89;100.00;98790.88;15285296;19;20014;-78
2022/08/24 09:06:11;;;;;;;3.30;1.30;;;;;;;23.01;100.00;98787.34;15287426;19;20006;-78
2022/08/24 09:11:31;;;;;;;3.85;1.00;;;;;;;23.19;100.00;98783.69;15288417;19;20011;-77
2022/08/24 09:16:51;;;;;;;1.58;0.85;;;;;;;23.35;100.00;98791.28;15289769;19;20355;-77
2022/08/24 09:22:10;;;;;;;1.95;1.10;;;;;;;23.44;100.00;98783.53;15282363;19;20014;-80
2022/08/24 09:27:31;;;;;;;1.58;0.85;;;;;;;23.67;100.00;98779.97;15284737;19;20007;-79
2022/08/24 09:32:43;;;;;;;1.90;1.10;;;;;;;23.82;100.00;98776.75;15278277;19;20007;-80
2022/08/24 09:38:01;;;;;;;3.15;1.20;;;;;;;23.94;100.00;98773.97;15290773;19;20019;-79
2022/08/24 09:43:44;;;;;;;2.95;1.08;;;;;;;24.19;100.00;98772.91;15283833;19;20010;-80
2022/08/24 09:49:19;;;;;;;2.13;0.98;;;;;;;24.43;100.00;98772.84;15288525;19;20030;-79
2022/08/24 09:54:56;;;;;;;3.03;0.95;;;;;;;24.54;100.00;98771.97;15285576;19;20024;-79
2022/08/24 10:00:17;;;;;;;3.28;1.15;;;;;;;24.84;100.00;98772.84;15282961;19;20401;-78
2022/08/24 10:05:30;;;;;;;2.63;1.20;;;;;;;25.03;100.00;98771.59;15289790;19;20015;-79
2022/08/24 10:10:53;;;;;;;2.72;1.00;;;;;;;25.05;100.00;98765.81;15284699;19;21022;-80
2022/08/24 10:16:18;;;;;;;2.47;0.90;;;;;;;25.29;100.00;98765.69;15284127;19;20018;-79
2022/08/24 10:21:37;;;;;;;3.42;1.08;;;;;;;25.52;100.00;98764.69;15281551;19;20712;-80
2022/08/24 10:27:03;;;;;;;4.75;1.08;;;;;;;25.63;100.00;98755.53;15286032;19;20411;-79
2022/08/24 10:32:23;;;;;;;2.63;1.10;;;;;;;25.44;100.00;98741.16;15279365;19;20031;-79
2022/08/24 10:39:39;;;;;;;3.43;1.10;;;;;;;25.47;100.00;98740.63;15282254;19;20074;-80
2022/08/24 10:43:57;;;;;;;2.85;1.10;;;;;;;25.48;100.00;98742.31;15274234;19;20015;-79
2022/08/24 10:49:33;;;;;;;2.78;1.05;;;;;;;25.62;100.00;98736.44;15280636;19;20014;-79
2022/08/24 10:54:41;;;;;;;3.78;1.10;;;;;;;25.68;100.00;98729.94;15279783;19;20006;-80
2022/08/24 10:59:57;;;;;;;3.00;1.00;;;;;;;25.88;100.00;98728.56;15279736;19;20399;-80
2022/08/24 11:05:04;;;;;;;2.25;0.90;;;;;;;25.92;100.00;98733.31;15282145;19;20026;-78
2022/08/24 11:10:12;;;;;;;3.30;1.00;;;;;;;25.98;100.00;98745.25;15285735;19;20022;-79
2022/08/24 11:15:26;;;;;;;1.98;1.00;;;;;;;26.18;100.00;98739.22;15280640;19;20475;-79
2022/08/24 11:20:35;;;;;;;1.85;1.00;;;;;;;26.38;100.00;98735.88;15280580;19;20086;-77
2022/08/24 11:25:53;;;;;;;5.90;1.10;;;;;;;26.27;100.00;98732.13;15285146;19;20657;-79
2022/08/24 11:30:58;;;;;;;2.30;0.80;;;;;;;26.18;100.00;98739.22;15286394;19;20018;-77
2022/08/24 11:36:04;;;;;;;4.40;0.88;;;;;;;26.17;100.00;98736.72;15280806;19;20014;-77
2022/08/24 11:41:18;;;;;;;4.60;1.15;;;;;;;26.27;100.00;98736.84;15279724;19;20022;-76
2022/08/24 11:46:30;;;;;;;2.70;0.90;;;;;;;26.32;100.00;98739.66;15288267;19;20016;-78
2022/08/24 11:51:42;;;;;;;2.15;0.82;;;;;;;26.46;100.00;98737.34;15307325;19;20188;-77
2022/08/24 11:57:03;;;;;;;2.55;0.90;;;;;;;26.72;100.00;98724.66;15360860;19;20086;-76
2022/08/24 12:02:19;;;;;;;2.10;0.88;;;;;;;26.85;100.00;98728.13;15284382;19;20010;-77
2022/08/24 12:07:36;;;;;;;2.25;0.98;;;;;;;27.06;100.00;98732.75;15286091;19;20477;-76
2022/08/24 12:12:48;;;;;;;4.25;1.20;;;;;;;27.39;91.25;98718.94;15281186;19;20037;-77
2022/08/24 12:18:01;;;;;;;3.72;1.10;;;;;;;27.54;100.00;98718.22;15293401;19;20034;-76
2022/08/24 12:23:13;;;;;;;4.05;1.10;;;;;;;27.63;99.24;98726.88;15286962;19;20023;-78
2022/08/24 12:28:25;;;;;;;2.17;0.88;;;;;;;27.44;98.58;98715.38;15295205;19;20006;-77
2022/08/24 12:33:34;;;;;;;2.25;0.70;;;;;;;27.46;89.08;98708.50;15288812;19;20018;-79
2022/08/24 12:38:46;;;;;;;3.08;0.90;;;;;;;27.26;93.88;98709.13;15291050;19;20010;-79
2022/08/24 12:43:57;;;;;;;2.00;0.90;;;;;;;27.40;87.89;98703.16;15286445;19;20410;-77
2022/08/24 12:49:06;;;;;;;2.17;0.75;;;;;;;27.90;92.60;98707.38;15297827;19;20042;-78
2022/08/24 12:54:27;;;;;;;3.80;0.80;;;;;;;28.08;83.68;98716.31;15296285;19;20014;-79
2022/08/24 12:59:40;;;;;;;1.67;0.90;;;;;;;28.36;87.77;98711.50;15294441;19;20492;-78
2022/08/24 13:04:58;;;;;;;1.92;0.70;;;;;;;28.54;79.05;98712.94;15291903;19;20011;-78
2022/08/24 13:10:15;;;;;;;2.88;0.80;;;;;;;28.73;78.54;98705.81;15288153;19;20022;-77
2022/08/24 13:15:59;;;;;;;2.53;0.98;;;;;;;28.79;77.61;98706.66;15285150;19;20010;-79
2022/08/24 13:21:17;;;;;;;1.95;0.80;;;;;;;28.98;69.13;98714.44;15286341;19;20037;-75
2022/08/24 13:26:28;;;;;;;4.03;0.80;;;;;;;29.30;70.35;98705.03;15289756;19;20340;-79
2022/08/24 13:31:42;;;;;;;1.75;0.70;;;;;;;29.72;64.88;98701.09;15289220;19;20015;-78
2022/08/24 13:36:55;;;;;;;3.03;1.00;;;;;;;29.92;63.96;98704.97;15287833;19;20355;-77
2022/08/24 13:42:13;;;;;;;2.25;0.60;;;;;;;30.07;63.42;98702.13;15282272;19;20038;-78
2022/08/24 13:47:26;;;;;;;2.10;0.80;;;;;;;30.32;60.87;98692.03;15281130;19;20042;-78
2022/08/24 13:52:43;;;;;;;2.17;0.82;;;;;;;29.98;62.23;98688.03;15284740;19;20018;-76
2022/08/24 13:58:03;;;;;;;3.20;0.90;;;;;;;29.92;67.66;98688.28;15289464;19;20475;-78
2022/08/24 14:03:28;;;;;;;3.55;0.70;;;;;;;30.31;65.02;98693.16;15284937;19;20031;-78
2022/08/24 14:08:45;;;;;;;0.90;0.70;;;;;;;30.62;60.70;98690.25;15291576;19;20017;-80
2022/08/24 14:14:04;;;;;;;1.48;0.80;;;;;;;30.78;61.29;98687.34;15281650;19;20014;-78
2022/08/24 14:19:21;;;;;;;2.38;0.82;;;;;;;30.85;60.79;98685.09;15290210;19;20018;-76
2022/08/24 14:24:32;;;;;;;1.65;0.70;;;;;;;31.29;59.51;98670.28;15291004;19;20018;-76
2022/08/24 14:29:40;;;;;;;1.45;0.80;;;;;;;31.36;56.82;98676.34;15292537;19;20014;-78
2022/08/24 14:35:00;;;;;;;1.40;0.70;;;;;;;31.46;55.51;98677.38;15287801;19;20042;-79
2022/08/24 14:40:16;;;;;;;1.58;0.70;;;;;;;31.41;55.83;98678.25;15294430;19;20019;-79
2022/08/24 14:45:24;;;;;;;2.63;0.90;;;;;;;31.44;57.78;98674.06;15289484;19;20011;-78
2022/08/24 14:50:37;;;;;;;3.58;0.70;;;;;;;31.48;54.99;98678.75;15287406;19;20019;-79
2022/08/24 14:55:49;;;;;;;3.85;0.70;;;;;;;31.73;55.39;98665.72;15290198;19;20011;-79
2022/08/24 15:01:13;;;;;;;1.73;0.70;;;;;;;31.98;52.76;98663.75;15291688;19;20035;-77
2022/08/24 15:06:27;;;;;;;3.20;0.77;;;;;;;32.14;53.16;98661.59;15292829;19;20010;-76
2022/08/24 15:11:32;;;;;;;2.22;0.80;;;;;;;32.23;53.31;98656.16;15297215;19;20424;-78
2022/08/24 15:16:49;;;;;;;1.05;0.70;;;;;;;32.54;51.54;98647.41;15287834;19;20018;-79
2022/08/24 15:22:03;;;;;;;4.03;0.60;;;;;;;32.73;52.11;98639.88;15291411;19;20030;-79
2022/08/24 15:27:28;;;;;;;2.42;0.70;;;;;;;32.56;48.59;98643.19;15298223;19;20081;-78
2022/08/24 15:32:47;;;;;;;1.85;0.68;;;;;;;32.51;50.40;98646.06;15350146;19;20025;-77
2022/08/24 15:37:55;;;;;;;1.93;0.70;;;;;;;32.47;51.18;98646.94;15293726;19;20007;-78
2022/08/24 15:43:02;;;;;;;3.22;0.80;;;;;;;32.20;52.15;98648.44;15275691;19;20388;-79
2022/08/24 15:48:07;;;;;;;2.67;0.63;;;;;;;31.97;51.73;98646.19;15276882;19;20015;-78
2022/08/24 15:53:32;;;;;;;1.98;0.75;;;;;;;32.19;48.37;98647.59;15279972;19;20015;-78
2022/08/24 15:58:39;;;;;;;1.52;0.70;;;;;;;32.08;49.90;98652.47;15282480;19;20078;-79
2022/08/24 16:03:48;;;;;;;3.35;0.63;;;;;;;31.79;51.08;98647.81;15282100;19;20018;-78
2022/08/24 16:09:02;;;;;;;1.33;0.70;;;;;;;31.36;51.79;98642.13;15290199;19;20034;-77
2022/08/24 16:14:12;;;;;;;3.08;0.65;;;;;;;31.49;52.41;98640.56;15286065;19;20010;-78
2022/08/24 16:19:25;;;;;;;2.13;0.90;;;;;;;31.76;51.45;98639.22;15288063;19;20070;-78
2022/08/24 16:24:36;;;;;;;3.50;0.85;;;;;;;31.96;50.60;98636.16;15268925;19;20042;-79
2022/08/24 16:29:55;;;;;;;1.13;0.60;;;;;;;32.03;49.47;98643.34;15270394;19;20010;-77
2022/08/24 16:35:20;;;;;;;3.50;0.80;;;;;;;32.10;49.54;98641.03;15270271;19;20490;-76
2022/08/24 16:40:29;;;;;;;2.53;0.70;;;;;;;32.12;49.80;98647.94;15287439;19;20026;-77
2022/08/24 16:45:35;;;;;;;2.75;0.70;;;;;;;32.12;50.56;98642.38;15285799;19;20014;-76
2022/08/24 16:50:40;;;;;;;2.22;0.70;;;;;;;31.94;50.29;98646.78;15295354;19;20018;-78
2022/08/24 16:55:47;;;;;;;3.60;0.70;;;;;;;31.68;50.44;98646.22;15293592;19;20360;-77
2022/08/24 17:00:52;;;;;;;1.77;0.70;;;;;;;31.76;51.16;98653.13;15286569;19;20014;-79
2022/08/24 17:05:59;;;;;;;3.38;0.80;;;;;;;31.74;51.42;98647.88;15290031;19;20007;-79
2022/08/24 17:11:07;;;;;;;1.75;0.77;;;;;;;31.56;52.30;98651.38;15296392;19;20065;-79
2022/08/24 17:16:14;;;;;;;2.15;0.80;;;;;;;31.18;54.94;98643.69;15289378;19;20025;-77
2022/08/24 17:21:19;;;;;;;4.20;0.80;;;;;;;31.07;56.50;98642.06;15289743;19;20082;-77
2022/08/24 17:26:26;;;;;;;2.15;0.80;;;;;;;30.82;58.10;98650.31;15289849;19;20007;-77
2022/08/24 17:31:32;;;;;;;3.15;1.08;;;;;;;30.72;59.19;98650.41;15287203;19;20010;-78
2022/08/24 17:36:37;;;;;;;2.45;1.00;;;;;;;30.41;61.27;98656.13;15289092;19;20010;-76
2022/08/24 17:41:46;;;;;;;2.28;0.80;;;;;;;30.06;63.18;98656.03;15290398;19;20018;-76
2022/08/24 17:46:52;;;;;;;2.70;0.80;;;;;;;29.81;65.37;98660.53;15291226;19;20006;-81
2022/08/24 17:52:00;;;;;;;3.10;0.90;;;;;;;29.54;68.03;98660.88;15291550;19;20029;-78
2022/08/24 17:57:07;;;;;;;1.60;0.80;;;;;;;29.16;71.98;98677.84;15288894;19;20025;-79
2022/08/24 18:02:14;;;;;;;2.08;0.98;;;;;;;28.79;75.73;98678.09;15289793;19;20010;-80
2022/08/24 18:07:21;;;;;;;5.25;0.82;;;;;;;28.33;80.78;98681.56;15282012;19;20475;-80
2022/08/24 18:12:49;;;;;;;3.97;0.80;;;;;;;27.86;87.69;98681.31;15301210;19;20356;-81
2022/08/24 18:17:54;;;;;;;2.92;1.10;;;;;;;27.47;93.90;98687.16;15274379;19;20026;-79
2022/08/24 18:23:00;;;;;;;1.77;0.98;;;;;;;27.12;99.32;98692.16;15292774;19;20030;-81
2022/08/24 18:28:09;;;;;;;2.05;0.98;;;;;;;26.83;100.00;98697.97;15298531;19;20054;-81
2022/08/24 18:33:14;;;;;;;5.07;1.00;;;;;;;26.49;100.00;98708.38;15294983;19;20010;-80
2022/08/24 18:38:19;;;;;;;3.10;1.25;;;;;;;26.14;100.00;98707.66;15296252;19;20041;-80
2022/08/24 18:43:27;;;;;;;3.13;1.00;;;;;;;25.71;100.00;98715.59;15299986;19;20090;-83
2022/08/24 18:48:31;;;;;;;3.83;1.10;;;;;;;25.43;100.00;98722.94;15305111;19;20015;-80
2022/08/24 18:53:36;;;;;;;3.30;1.23;;;;;;;25.20;100.00;98723.88;15308973;19;20010;-82
2022/08/24 18:58:45;;;;;;;2.78;1.05;;;;;;;24.97;100.00;98724.88;15332198;19;20014;-75
2022/08/24 19:03:50;;;;;;;4.32;1.10;;;;;;;24.65;100.00;98725.34;15318239;19;20011;-75
2022/08/24 19:08:55;;;;;;;4.55;1.20;;;;;;;24.49;100.00;98724.22;15299127;19;20479;-75
2022/08/24 19:14:02;;;;;;;5.95;1.23;;;;;;;24.36;100.00;98722.59;15284996;19;20046;-74
2022/08/24 19:19:07;;;;;;;5.45;1.30;;;;;;;24.10;100.00;98728.41;15286499;19;20034;-76
2022/08/24 19:24:11;;;;;;;5.38;1.27;;;;;;;24.00;100.00;98728.16;15282496;19;20011;-77
2022/08/24 19:29:19;;;;;;;4.80;1.27;;;;;;;23.88;100.00;98725.41;15283568;19;20021;-75
2022/08/24 19:34:44;;;;;;;5.13;1.10;;;;;;;23.76;100.00;98727.34;15285044;19;20011;-77
2022/08/24 19:39:49;;;;;;;7.22;1.17;;;;;;;23.65;100.00;98727.13;15281008;19;20010;-74
2022/08/24 19:50:16;;;;;;;4.80;1.30;;;;;;;23.46;100.00;98725.56;15334613;19;20074;-77
2022/08/24 19:55:24;;;;;;;4.53;1.10;;;;;;;23.36;100.00;98721.47;15276010;19;20361;-76
2022/08/24 20:00:37;;;;;;;2.90;1.20;;;;;;;23.26;100.00;98723.97;15281617;19;20022;-74
2022/08/24 20:05:42;;;;;;;3.92;1.20;;;;;;;23.15;100.00;98724.75;15275566;19;20006;-77
2022/08/24 20:10:46;;;;;;;5.05;1.30;;;;;;;23.05;100.00;98726.19;15279303;19;20344;-76
2022/08/24 20:15:54;;;;;;;5.07;1.30;;;;;;;22.96;100.00;98722.09;15285156;19;20043;-77
2022/08/24 20:20:59;;;;;;;2.78;1.15;;;;;;;22.74;100.00;98725.38;15295666;19;20038;-77
2022/08/24 20:26:07;;;;;;;3.17;1.40;;;;;;;22.59;100.00;98724.97;15294246;19;20404;-76
2022/08/24 20:31:15;;;;;;;4.95;1.33;;;;;;;22.46;100.00;98726.81;15299490;19;20377;-77
2022/08/24 20:36:26;;;;;;;4.68;1.30;;;;;;;22.40;100.00;98724.94;15290747;19;20086;-79
2022/08/24 20:41:32;;;;;;;5.38;1.40;;;;;;;22.33;100.00;98732.44;15292502;19;20035;-81
2022/08/24 20:46:41;;;;;;;4.63;1.35;;;;;;;22.23;100.00;98727.50;15287973;19;20367;-77
2022/08/24 20:51:51;;;;;;;7.70;1.60;;;;;;;22.14;100.00;98732.47;15300666;19;20014;-78
2022/08/24 20:56:56;;;;;;;3.47;1.38;;;;;;;22.09;100.00;98737.78;15295032;19;20007;-76
2022/08/24 21:02:03;;;;;;;6.00;1.60;;;;;;;22.03;100.00;98735.97;15294038;19;20048;-76
2022/08/24 21:07:11;;;;;;;3.53;1.55;;;;;;;21.97;100.00;98739.63;15288240;19;20475;-76
2022/08/24 21:12:16;;;;;;;7.03;1.60;;;;;;;21.92;100.00;98744.97;15279108;19;20380;-76
2022/08/24 21:17:25;;;;;;;4.57;1.48;;;;;;;21.88;100.00;98746.47;15268149;19;20025;-76
2022/08/24 21:22:30;;;;;;;4.30;1.50;;;;;;;21.83;100.00;98748.00;15274596;19;20471;-77
2022/08/24 21:27:37;;;;;;;3.80;1.50;;;;;;;21.80;100.00;98742.97;15279588;19;20007;-76
2022/08/24 21:38:01;;;;;;;5.00;1.55;;;;;;;21.69;100.00;98738.25;15276656;19;20377;-76
2022/08/24 21:43:06;;;;;;;4.55;1.63;;;;;;;21.66;100.00;98745.00;15275272;19;20011;-77
2022/08/24 21:48:23;;;;;;;5.05;1.50;;;;;;;21.60;100.00;98739.56;15272130;19;20022;-77
2022/08/24 21:53:29;;;;;;;3.50;1.60;;;;;;;21.52;100.00;98744.25;15273126;19;20018;-77
2022/08/24 21:58:34;;;;;;;4.53;1.70;;;;;;;21.48;100.00;98743.03;15275234;19;20039;-76
2022/08/24 22:03:43;;;;;;;5.47;1.80;;;;;;;21.41;100.00;98739.50;15272738;19;20038;-76
2022/08/24 22:08:48;;;;;;;4.00;1.52;;;;;;;21.27;100.00;98736.06;15277288;19;20018;-77
2022/08/24 22:13:54;;;;;;;4.75;1.42;;;;;;;21.11;100.00;98731.94;15271734;19;20359;-77
2022/08/24 22:19:02;;;;;;;3.78;1.63;;;;;;;21.00;100.00;98743.59;15270123;19;20034;-77
2022/08/24 22:24:07;;;;;;;4.45;2.00;;;;;;;20.87;100.00;98742.66;15266634;19;20356;-77
2022/08/24 22:29:13;;;;;;;3.40;1.60;;;;;;;20.78;100.00;98733.88;15274746;19;20356;-77
2022/08/24 22:34:21;;;;;;;4.70;1.80;;;;;;;20.72;100.00;98729.22;15271562;19;20015;-77
2022/08/24 22:39:27;;;;;;;3.28;1.65;;;;;;;20.63;100.00;98731.41;15273300;19;20034;-77
2022/08/24 22:44:33;;;;;;;4.40;1.75;;;;;;;20.53;100.00;98731.00;15270347;19;20501;-77
2022/08/24 22:49:43;;;;;;;3.88;1.80;;;;;;;20.40;100.00;98734.66;15268871;19;20019;-77
2022/08/24 22:54:47;;;;;;;2.70;1.80;;;;;;;20.35;100.00;98725.44;15266050;19;20010;-77
2022/08/24 22:59:52;;;;;;;3.58;1.80;;;;;;;20.29;100.00;98721.66;15273034;19;20374;-76
2022/08/24 23:04:59;;;;;;;4.35;1.90;;;;;;;20.22;100.00;98720.88;15269156;19;20026;-77
2022/08/24 23:10:05;;;;;;;3.65;2.00;;;;;;;20.17;100.00;98719.63;15271770;19;20062;-77
2022/08/24 23:15:11;;;;;;;4.05;2.08;;;;;;;20.13;100.00;98728.47;15272374;19;20014;-77
2022/08/24 23:20:19;;;;;;;3.63;1.83;;;;;;;20.07;100.00;98721.97;15273732;19;20010;-77
2022/08/24 23:25:23;;;;;;;5.70;2.00;;;;;;;19.97;100.00;98730.63;15261631;19;20019;-78
2022/08/24 23:30:28;;;;;;;4.45;2.30;;;;;;;19.91;100.00;98723.28;15276989;19;20023;-78
2022/08/24 23:35:38;;;;;;;5.07;2.03;;;;;;;19.86;100.00;98725.81;15279104;19;20721;-77
2022/08/24 23:40:43;;;;;;;6.90;2.25;;;;;;;19.80;100.00;98724.75;15293798;19;20010;-74
2022/08/24 23:45:47;;;;;;;7.28;2.40;;;;;;;19.75;100.00;98726.44;15273166;19;20014;-76
2022/08/24 23:50:55;;;;;;;3.58;2.30;;;;;;;19.67;100.00;98722.88;15280919;19;20618;-75
2022/08/24 23:56:08;;;;;;;3.05;2.10;;;;;;;19.53;100.00;98704.81;15275136;19;20499;-76
